Time;durP1;ratioP1;P1;durP2;ratioP2;P2;SDS_P1;SDS_P2;PMS_P1;PMS_P2;Temp;Humidity;BMP_temperature;BMP_pressure;BME280_temperature;BME280_humidity;BME280_pressure;Samples;Min_cycle;Max_cycle;Signal;HPM_P1;HPM_P2
2023/03/19 00:00:17;;;;;;;1.05;0.77;;;;;;;;;;1015623;29;20287;-82
2023/03/19 00:00:48;;;;;;;1.10;1.00;;;;;;;;;;1011867;29;20112;-83
2023/03/19 00:01:19;;;;;;;1.00;0.80;;;;;;;;;;1016118;29;20086;-82
2023/03/19 00:01:50;;;;;;;1.25;0.85;;;;;;;;;;1019758;29;20051;-81
2023/03/19 00:02:21;;;;;;;0.63;0.60;;;;;;;;;;1023533;28;20019;-82
2023/03/19 00:02:52;;;;;;;1.55;0.90;;;;;;;;;;1027471;28;20105;-83
2023/03/19 00:03:23;;;;;;;0.80;0.70;;;;;;;;;;1025544;28;20640;-82
2023/03/19 00:03:54;;;;;;;1.05;0.80;;;;;;;;;;1027495;28;20262;-82
2023/03/19 00:04:26;;;;;;;0.95;0.70;;;;;;;;;;1027237;28;20107;-82
2023/03/19 00:04:57;;;;;;;1.08;0.90;;;;;;;;;;1022455;29;20170;-83
2023/03/19 00:05:28;;;;;;;0.93;0.70;;;;;;;;;;1019708;29;20028;-83
2023/03/19 00:05:59;;;;;;;1.33;0.80;;;;;;;;;;1021099;28;20028;-83
2023/03/19 00:06:30;;;;;;;1.02;0.80;;;;;;;;;;1021261;29;20034;-82
2023/03/19 00:07:01;;;;;;;0.82;0.80;;;;;;;;;;1020492;28;20748;-82
2023/03/19 00:07:32;;;;;;;1.70;0.80;;;;;;;;;;1019752;29;20030;-83
2023/03/19 00:08:03;;;;;;;1.10;0.80;;;;;;;;;;1022408;28;20255;-83
2023/03/19 00:08:34;;;;;;;0.95;0.80;;;;;;;;;;1027149;28;20532;-83
2023/03/19 00:09:05;;;;;;;1.10;0.80;;;;;;;;;;1027259;28;20954;-82
2023/03/19 00:09:36;;;;;;;1.00;0.77;;;;;;;;;;1027359;28;20019;-83
2023/03/19 00:10:07;;;;;;;1.02;0.80;;;;;;;;;;1023448;29;20032;-84
2023/03/19 00:10:38;;;;;;;0.75;0.70;;;;;;;;;;1021524;29;20109;-84
2023/03/19 00:11:13;;;;;;;1.10;0.85;;;;;;;;;;1023346;29;20110;-83
2023/03/19 00:11:44;;;;;;;1.15;0.82;;;;;;;;;;1019973;29;20403;-83
2023/03/19 00:12:15;;;;;;;0.70;0.70;;;;;;;;;;1020193;29;20043;-83
2023/03/19 00:12:46;;;;;;;1.38;0.90;;;;;;;;;;1023708;29;20091;-83
2023/03/19 00:13:17;;;;;;;1.23;1.00;;;;;;;;;;1022743;29;20020;-83
2023/03/19 00:13:48;;;;;;;1.10;1.00;;;;;;;;;;1019764;28;20062;-83
2023/03/19 00:14:19;;;;;;;1.00;0.87;;;;;;;;;;1023314;29;20085;-83
2023/03/19 00:14:50;;;;;;;1.58;0.90;;;;;;;;;;1024011;28;20275;-83
2023/03/19 00:15:21;;;;;;;1.38;1.05;;;;;;;;;;1027239;28;20695;-82
2023/03/19 00:15:52;;;;;;;1.38;0.82;;;;;;;;;;1027277;28;20011;-83
2023/03/19 00:16:23;;;;;;;1.50;0.77;;;;;;;;;;1023520;29;20436;-82
2023/03/19 00:16:54;;;;;;;0.93;0.80;;;;;;;;;;1023461;29;20305;-83
2023/03/19 00:17:25;;;;;;;0.90;0.70;;;;;;;;;;1019468;29;20037;-83
2023/03/19 00:17:56;;;;;;;1.77;1.00;;;;;;;;;;1019734;29;20055;-82
2023/03/19 00:18:27;;;;;;;1.00;0.93;;;;;;;;;;1027416;28;20292;-83
2023/03/19 00:18:58;;;;;;;1.10;0.80;;;;;;;;;;1026916;28;20023;-83
2023/03/19 00:19:29;;;;;;;2.95;0.85;;;;;;;;;;1023749;28;20737;-83
2023/03/19 00:20:00;;;;;;;0.93;0.87;;;;;;;;;;1027433;28;20018;-83
2023/03/19 00:20:31;;;;;;;0.93;0.90;;;;;;;;;;1022753;28;20884;-83
2023/03/19 00:21:02;;;;;;;0.90;0.90;;;;;;;;;;1019325;29;20251;-83
2023/03/19 00:21:33;;;;;;;1.65;0.90;;;;;;;;;;1019798;29;20322;-82
2023/03/19 00:22:04;;;;;;;1.15;0.95;;;;;;;;;;1019523;29;20096;-83
2023/03/19 00:22:35;;;;;;;1.98;1.08;;;;;;;;;;1022183;29;20030;-82
2023/03/19 00:23:06;;;;;;;1.35;0.90;;;;;;;;;;1019484;29;20019;-83
2023/03/19 00:23:37;;;;;;;2.53;1.10;;;;;;;;;;1023478;29;20551;-82
2023/03/19 00:24:09;;;;;;;1.93;1.00;;;;;;;;;;1020202;29;20028;-80
2023/03/19 00:24:40;;;;;;;0.85;0.82;;;;;;;;;;1019584;29;20359;-82
2023/03/19 00:25:11;;;;;;;1.13;0.90;;;;;;;;;;1023101;29;20061;-83
2023/03/19 00:25:42;;;;;;;1.27;0.80;;;;;;;;;;1020382;29;20027;-83
2023/03/19 00:26:13;;;;;;;1.63;1.17;;;;;;;;;;1023305;28;20067;-83
2023/03/19 00:26:44;;;;;;;1.02;0.73;;;;;;;;;;1031950;28;20022;-83
2023/03/19 00:27:15;;;;;;;1.02;0.93;;;;;;;;;;1031318;28;20530;-82
2023/03/19 00:27:46;;;;;;;1.50;0.90;;;;;;;;;;1024500;28;20434;-82
2023/03/19 00:28:17;;;;;;;1.30;1.00;;;;;;;;;;1023080;29;20480;-82
2023/03/19 00:28:48;;;;;;;1.10;0.90;;;;;;;;;;1019812;29;20275;-82
2023/03/19 00:29:19;;;;;;;1.17;1.03;;;;;;;;;;1019372;29;20307;-82
2023/03/19 00:29:50;;;;;;;0.77;0.75;;;;;;;;;;1023741;29;20271;-82
2023/03/19 00:30:22;;;;;;;1.77;1.10;;;;;;;;;;1019359;29;20039;-82
2023/03/19 00:30:53;;;;;;;0.85;0.80;;;;;;;;;;1018918;29;20271;-82
2023/03/19 00:31:25;;;;;;;0.80;0.80;;;;;;;;;;1019248;29;20040;-82
2023/03/19 00:31:56;;;;;;;0.82;0.80;;;;;;;;;;1019710;29;20129;-82
2023/03/19 00:32:27;;;;;;;0.93;0.82;;;;;;;;;;1019387;29;20051;-83
2023/03/19 00:32:58;;;;;;;0.70;0.70;;;;;;;;;;1023193;28;20023;-83
2023/03/19 00:33:30;;;;;;;1.80;1.20;;;;;;;;;;1023305;29;20346;-83
2023/03/19 00:34:02;;;;;;;1.10;0.95;;;;;;;;;;1023958;28;20349;-83
2023/03/19 00:34:33;;;;;;;1.42;1.20;;;;;;;;;;1026982;28;20026;-83
2023/03/19 00:35:05;;;;;;;1.67;0.88;;;;;;;;;;1027353;28;20070;-83
2023/03/19 00:35:36;;;;;;;1.20;0.90;;;;;;;;;;1025069;28;20430;-83
2023/03/19 00:36:07;;;;;;;2.33;0.85;;;;;;;;;;1025016;28;20498;-84
2023/03/19 00:36:38;;;;;;;1.60;0.90;;;;;;;;;;1027203;28;20521;-83
2023/03/19 00:37:10;;;;;;;1.30;0.98;;;;;;;;;;1023475;29;20817;-82
2023/03/19 00:37:42;;;;;;;1.17;0.98;;;;;;;;;;1019043;29;20024;-83
2023/03/19 00:38:13;;;;;;;0.98;0.80;;;;;;;;;;1019647;29;20600;-83
2023/03/19 00:38:45;;;;;;;0.77;0.70;;;;;;;;;;1019811;29;20712;-83
2023/03/19 00:39:16;;;;;;;1.42;0.98;;;;;;;;;;1019435;29;20075;-83
2023/03/19 00:39:50;;;;;;;1.17;0.90;;;;;;;;;;1019531;29;20610;-83
2023/03/19 00:40:21;;;;;;;1.10;0.80;;;;;;;;;;1019289;29;20458;-82
2023/03/19 00:40:52;;;;;;;1.40;1.00;;;;;;;;;;1015345;29;20472;-82
2023/03/19 00:41:23;;;;;;;1.67;0.90;;;;;;;;;;1012058;29;20024;-82
2023/03/19 00:41:54;;;;;;;1.52;1.20;;;;;;;;;;1016068;29;20033;-82
2023/03/19 00:42:25;;;;;;;0.90;0.80;;;;;;;;;;1019963;29;20024;-83
2023/03/19 00:42:56;;;;;;;1.25;0.90;;;;;;;;;;1017499;29;20342;-82
2023/03/19 00:43:27;;;;;;;1.00;0.82;;;;;;;;;;1019626;29;20086;-82
2023/03/19 00:43:59;;;;;;;0.90;0.70;;;;;;;;;;1019518;29;20062;-82
2023/03/19 00:44:30;;;;;;;1.25;0.90;;;;;;;;;;1021365;28;20023;-82
2023/03/19 00:45:01;;;;;;;1.10;0.88;;;;;;;;;;1024085;28;20027;-81
2023/03/19 00:45:32;;;;;;;1.40;0.93;;;;;;;;;;1019669;29;20024;-83
2023/03/19 00:46:03;;;;;;;1.48;1.10;;;;;;;;;;1019369;29;20061;-81
2023/03/19 00:46:34;;;;;;;0.95;0.75;;;;;;;;;;1019973;29;20019;-82
2023/03/19 00:47:06;;;;;;;2.60;0.98;;;;;;;;;;1023582;28;20066;-81
2023/03/19 00:47:37;;;;;;;1.02;0.70;;;;;;;;;;1027992;28;20070;-82
2023/03/19 00:48:08;;;;;;;1.20;0.87;;;;;;;;;;1026929;28;20105;-81
2023/03/19 00:48:39;;;;;;;1.10;0.90;;;;;;;;;;1023729;29;20275;-81
2023/03/19 00:49:10;;;;;;;0.80;0.75;;;;;;;;;;1018778;29;20024;-81
2023/03/19 00:49:41;;;;;;;1.45;0.90;;;;;;;;;;1015633;29;20032;-81
2023/03/19 00:50:12;;;;;;;0.90;0.80;;;;;;;;;;1015566;29;20025;-81
2023/03/19 00:50:43;;;;;;;0.82;0.70;;;;;;;;;;1015766;29;20028;-81
2023/03/19 00:51:14;;;;;;;1.08;0.75;;;;;;;;;;1019471;29;20392;-81
2023/03/19 00:51:45;;;;;;;0.68;0.60;;;;;;;;;;1023508;29;20479;-82
2023/03/19 00:52:16;;;;;;;0.85;0.85;;;;;;;;;;1023186;28;20023;-81
2023/03/19 00:52:48;;;;;;;0.82;0.60;;;;;;;;;;1028096;28;20035;-82
2023/03/19 00:53:19;;;;;;;1.20;0.80;;;;;;;;;;1026481;28;20022;-81
2023/03/19 00:53:50;;;;;;;1.67;0.98;;;;;;;;;;1023809;28;20063;-83
2023/03/19 00:54:21;;;;;;;2.22;1.17;;;;;;;;;;1027011;28;20489;-81
2023/03/19 00:54:52;;;;;;;1.20;0.90;;;;;;;;;;1027133;28;20027;-81
2023/03/19 00:55:24;;;;;;;0.88;0.80;;;;;;;;;;1027236;28;20034;-81
2023/03/19 00:55:55;;;;;;;1.92;0.90;;;;;;;;;;1026564;28;20094;-81
2023/03/19 00:56:26;;;;;;;1.42;0.90;;;;;;;;;;1023467;28;20257;-81
2023/03/19 00:56:57;;;;;;;1.17;0.77;;;;;;;;;;1023672;28;20432;-81
2023/03/19 00:57:28;;;;;;;1.33;0.70;;;;;;;;;;1027191;28;20050;-81
2023/03/19 00:57:59;;;;;;;0.80;0.80;;;;;;;;;;1027226;28;20038;-82
2023/03/19 00:58:30;;;;;;;1.25;0.90;;;;;;;;;;1026661;28;20062;-82
2023/03/19 00:59:01;;;;;;;1.08;0.70;;;;;;;;;;1023935;29;20107;-81
2023/03/19 00:59:32;;;;;;;0.63;0.57;;;;;;;;;;1023321;29;20029;-82
2023/03/19 01:00:03;;;;;;;0.63;0.63;;;;;;;;;;1024757;28;20262;-80
2023/03/19 01:00:35;;;;;;;1.83;0.98;;;;;;;;;;1023271;29;20073;-82
2023/03/19 01:01:09;;;;;;;0.93;0.80;;;;;;;;;;1022810;29;20019;-81
2023/03/19 01:01:40;;;;;;;0.88;0.70;;;;;;;;;;1023752;28;20023;-82
2023/03/19 01:02:12;;;;;;;1.00;0.95;;;;;;;;;;1022962;29;20222;-82
2023/03/19 01:02:43;;;;;;;1.30;0.70;;;;;;;;;;1023382;29;20462;-81
2023/03/19 01:03:14;;;;;;;0.60;0.60;;;;;;;;;;1019215;29;20504;-82
2023/03/19 01:03:46;;;;;;;1.85;1.13;;;;;;;;;;1019430;29;20020;-82
2023/03/19 01:04:17;;;;;;;1.23;0.77;;;;;;;;;;1015903;29;20022;-82
2023/03/19 01:04:48;;;;;;;0.73;0.70;;;;;;;;;;1016204;29;20041;-82
2023/03/19 01:05:20;;;;;;;0.60;0.60;;;;;;;;;;1019384;29;20051;-82
2023/03/19 01:05:51;;;;;;;2.33;0.90;;;;;;;;;;1020094;29;20431;-83
2023/03/19 01:06:22;;;;;;;0.80;0.80;;;;;;;;;;1023811;28;20034;-82
2023/03/19 01:06:54;;;;;;;1.13;1.00;;;;;;;;;;1027314;28;20431;-82
2023/03/19 01:07:25;;;;;;;1.02;0.90;;;;;;;;;;1027501;28;20119;-82
2023/03/19 01:07:56;;;;;;;1.60;0.70;;;;;;;;;;1027386;28;20110;-82
2023/03/19 01:08:27;;;;;;;0.80;0.80;;;;;;;;;;1020677;28;20283;-81
2023/03/19 01:08:58;;;;;;;0.68;0.60;;;;;;;;;;1025773;28;20038;-82
2023/03/19 01:09:29;;;;;;;0.90;0.70;;;;;;;;;;1024215;28;20122;-82
2023/03/19 01:10:00;;;;;;;0.75;0.65;;;;;;;;;;1019340;29;20295;-82
2023/03/19 01:10:33;;;;;;;1.23;0.82;;;;;;;;;;1019117;29;20705;-82
2023/03/19 01:11:13;;;;;;;0.80;0.80;;;;;;;;;;1019414;29;20040;-82
2023/03/19 01:11:44;;;;;;;1.00;0.70;;;;;;;;;;1015449;29;20521;-83
2023/03/19 01:12:15;;;;;;;0.75;0.70;;;;;;;;;;1016806;29;20580;-83
2023/03/19 01:12:46;;;;;;;1.25;0.80;;;;;;;;;;1016551;29;20539;-82
2023/03/19 01:13:17;;;;;;;1.38;0.75;;;;;;;;;;1015295;29;20028;-82
2023/03/19 01:13:48;;;;;;;1.52;0.88;;;;;;;;;;1021205;29;20095;-82
2023/03/19 01:14:19;;;;;;;1.58;0.90;;;;;;;;;;1019230;29;20024;-82
2023/03/19 01:14:50;;;;;;;1.35;0.98;;;;;;;;;;1023546;29;20027;-82
2023/03/19 01:15:21;;;;;;;2.50;0.95;;;;;;;;;;1018598;29;20059;-82
2023/03/19 01:15:52;;;;;;;0.90;0.82;;;;;;;;;;1015583;29;20031;-82
2023/03/19 01:16:23;;;;;;;0.98;0.70;;;;;;;;;;1019391;29;20035;-82
2023/03/19 01:16:54;;;;;;;0.70;0.70;;;;;;;;;;1019693;29;20078;-82
2023/03/19 01:17:25;;;;;;;1.10;0.90;;;;;;;;;;1023041;29;20933;-82
2023/03/19 01:17:56;;;;;;;0.80;0.75;;;;;;;;;;1022827;29;20274;-82
2023/03/19 01:18:27;;;;;;;0.98;0.82;;;;;;;;;;1015557;29;20032;-82
2023/03/19 01:18:58;;;;;;;1.00;0.83;;;;;;;;;;1016059;29;20051;-82
2023/03/19 01:19:29;;;;;;;1.60;1.10;;;;;;;;;;1020925;28;20268;-82
2023/03/19 01:20:00;;;;;;;0.73;0.70;;;;;;;;;;1023105;28;20939;-83
2023/03/19 01:20:31;;;;;;;0.80;0.75;;;;;;;;;;1022847;29;20286;-80
2023/03/19 01:21:03;;;;;;;2.47;0.93;;;;;;;;;;1020629;28;20020;-83
2023/03/19 01:21:35;;;;;;;1.38;0.80;;;;;;;;;;1023316;29;20042;-82
2023/03/19 01:22:06;;;;;;;0.93;0.70;;;;;;;;;;1023182;29;20027;-82
2023/03/19 01:22:37;;;;;;;0.82;0.82;;;;;;;;;;1023483;29;20023;-82
2023/03/19 01:23:08;;;;;;;1.07;0.97;;;;;;;;;;1023281;28;20134;-81
2023/03/19 01:23:39;;;;;;;0.60;0.60;;;;;;;;;;1023923;28;20267;-82
2023/03/19 01:24:10;;;;;;;1.02;0.70;;;;;;;;;;1027476;28;20026;-81
2023/03/19 01:24:41;;;;;;;1.75;1.10;;;;;;;;;;1022566;28;20027;-81
2023/03/19 01:25:13;;;;;;;0.80;0.80;;;;;;;;;;1023202;29;20027;-81
2023/03/19 01:25:44;;;;;;;0.65;0.65;;;;;;;;;;1023288;29;20034;-81
2023/03/19 01:26:15;;;;;;;0.65;0.65;;;;;;;;;;1023362;28;20062;-81
2023/03/19 01:26:46;;;;;;;0.77;0.70;;;;;;;;;;1024200;28;20041;-81
2023/03/19 01:27:17;;;;;;;1.85;1.05;;;;;;;;;;1027378;28;20263;-82
2023/03/19 01:27:48;;;;;;;1.48;0.90;;;;;;;;;;1023412;28;20023;-82
2023/03/19 01:28:19;;;;;;;1.57;0.90;;;;;;;;;;1023358;29;20110;-81
2023/03/19 01:28:51;;;;;;;1.17;0.70;;;;;;;;;;1023783;29;20842;-82
2023/03/19 01:29:22;;;;;;;1.35;0.85;;;;;;;;;;1020069;29;20767;-81
2023/03/19 01:29:53;;;;;;;1.27;0.75;;;;;;;;;;1023685;28;20533;-80
2023/03/19 01:30:24;;;;;;;0.77;0.73;;;;;;;;;;1023227;29;20794;-82
2023/03/19 01:30:58;;;;;;;0.80;0.70;;;;;;;;;;1023497;28;20341;-80
2023/03/19 01:31:29;;;;;;;1.70;0.93;;;;;;;;;;1025490;28;20055;-84
2023/03/19 01:32:00;;;;;;;1.85;0.90;;;;;;;;;;1027621;28;20098;-83
2023/03/19 01:32:32;;;;;;;0.85;0.70;;;;;;;;;;1022879;29;20031;-84
2023/03/19 01:33:03;;;;;;;0.88;0.60;;;;;;;;;;1023830;29;20054;-81
2023/03/19 01:33:34;;;;;;;0.82;0.70;;;;;;;;;;1023371;29;20054;-81
2023/03/19 01:34:05;;;;;;;1.43;0.87;;;;;;;;;;1023677;29;20693;-81
2023/03/19 01:34:36;;;;;;;1.10;0.70;;;;;;;;;;1023791;28;20266;-81
2023/03/19 01:35:08;;;;;;;0.85;0.82;;;;;;;;;;1023990;29;20039;-82
2023/03/19 01:35:40;;;;;;;1.23;0.98;;;;;;;;;;1027122;28;20047;-81
2023/03/19 01:36:11;;;;;;;0.77;0.77;;;;;;;;;;1023794;29;20715;-81
2023/03/19 01:36:42;;;;;;;1.38;0.80;;;;;;;;;;1023477;28;20086;-82
2023/03/19 01:37:14;;;;;;;0.83;0.80;;;;;;;;;;1023781;29;20062;-82
2023/03/19 01:37:45;;;;;;;0.90;0.85;;;;;;;;;;1019970;29;20749;-82
2023/03/19 01:38:16;;;;;;;0.90;0.77;;;;;;;;;;1019677;29;20432;-82
2023/03/19 01:38:47;;;;;;;0.88;0.63;;;;;;;;;;1019180;29;20287;-82
2023/03/19 01:39:18;;;;;;;0.70;0.70;;;;;;;;;;1019608;29;20024;-83
2023/03/19 01:39:49;;;;;;;1.02;0.90;;;;;;;;;;1019644;29;20032;-83
2023/03/19 01:40:20;;;;;;;0.97;0.70;;;;;;;;;;1019780;29;20020;-82
2023/03/19 01:40:52;;;;;;;1.83;0.98;;;;;;;;;;1019558;29;20370;-82
2023/03/19 01:41:23;;;;;;;0.93;0.80;;;;;;;;;;1019261;29;20023;-83
2023/03/19 01:41:54;;;;;;;0.82;0.77;;;;;;;;;;1016828;29;20055;-82
2023/03/19 01:42:25;;;;;;;1.10;0.75;;;;;;;;;;1020012;29;20027;-82
2023/03/19 01:43:11;;;;;;;0.75;0.60;;;;;;;;;;1023812;28;20016;-82
2023/03/19 01:43:42;;;;;;;0.90;0.65;;;;;;;;;;1023400;29;20051;-82
2023/03/19 01:44:23;;;;;;;1.40;0.70;;;;;;;;;;1023358;29;20062;-82
2023/03/19 01:44:54;;;;;;;0.80;0.80;;;;;;;;;;1023993;28;20019;-81
2023/03/19 01:45:32;;;;;;;0.90;0.60;;;;;;;;;;1027564;28;20031;-81
2023/03/19 01:46:03;;;;;;;1.08;0.85;;;;;;;;;;1020985;29;20030;-81
2023/03/19 01:46:35;;;;;;;0.80;0.80;;;;;;;;;;1020423;29;20020;-81
2023/03/19 01:47:15;;;;;;;0.88;0.70;;;;;;;;;;1024686;28;20997;-80
2023/03/19 01:47:46;;;;;;;0.98;0.73;;;;;;;;;;1027600;28;20119;-81
2023/03/19 01:48:35;;;;;;;0.85;0.68;;;;;;;;;;1022937;28;20111;-81
2023/03/19 01:49:08;;;;;;;0.85;0.68;;;;;;;;;;1023215;29;20129;-81
2023/03/19 01:49:39;;;;;;;1.48;0.85;;;;;;;;;;1019418;29;20062;-81
2023/03/19 01:50:21;;;;;;;1.17;0.77;;;;;;;;;;1019376;29;20019;-80
2023/03/19 01:50:54;;;;;;;1.10;0.90;;;;;;;;;;1021198;29;20027;-81
2023/03/19 01:51:27;;;;;;;0.75;0.70;;;;;;;;;;1025169;28;20066;-81
2023/03/19 01:51:59;;;;;;;1.35;1.00;;;;;;;;;;1027335;28;20027;-81
2023/03/19 01:52:33;;;;;;;0.60;0.57;;;;;;;;;;1023326;29;20145;-82
2023/03/19 01:53:04;;;;;;;0.77;0.77;;;;;;;;;;1023549;29;20032;-82
2023/03/19 01:53:35;;;;;;;1.30;0.73;;;;;;;;;;1023422;29;20292;-82
2023/03/19 01:54:08;;;;;;;1.13;0.90;;;;;;;;;;1024257;28;20042;-82
2023/03/19 01:54:40;;;;;;;1.35;0.90;;;;;;;;;;1027151;28;20077;-82
2023/03/19 01:55:11;;;;;;;0.73;0.73;;;;;;;;;;1023362;28;20171;-83
2023/03/19 01:55:42;;;;;;;0.93;0.70;;;;;;;;;;1018853;29;20858;-83
2023/03/19 01:56:18;;;;;;;1.13;0.95;;;;;;;;;;1019164;29;20063;-82
2023/03/19 01:56:54;;;;;;;1.13;1.00;;;;;;;;;;1020473;29;20039;-82
2023/03/19 01:57:26;;;;;;;1.63;0.90;;;;;;;;;;1024981;28;20643;-82
2023/03/19 01:57:57;;;;;;;1.00;0.90;;;;;;;;;;1026156;28;20030;-83
2023/03/19 01:58:28;;;;;;;1.65;0.98;;;;;;;;;;1023065;28;20054;-82
2023/03/19 01:59:03;;;;;;;1.02;0.80;;;;;;;;;;1019545;29;20052;-82
2023/03/19 01:59:37;;;;;;;1.70;0.80;;;;;;;;;;1019309;29;20163;-82
2023/03/19 02:00:08;;;;;;;1.70;1.17;;;;;;;;;;1016686;29;20469;-83
2023/03/19 02:00:40;;;;;;;1.35;0.75;;;;;;;;;;1019898;29;20405;-83
2023/03/19 02:01:11;;;;;;;1.17;0.80;;;;;;;;;;1023372;29;20023;-83
2023/03/19 02:02:02;;;;;;;0.82;0.70;;;;;;;;;;1023646;28;20043;-82
2023/03/19 02:02:34;;;;;;;1.45;0.88;;;;;;;;;;1023028;29;20170;-82
2023/03/19 02:03:06;;;;;;;2.08;0.80;;;;;;;;;;1020653;29;20031;-82
2023/03/19 02:03:37;;;;;;;1.10;0.73;;;;;;;;;;1020167;29;20023;-82
2023/03/19 02:04:09;;;;;;;0.75;0.70;;;;;;;;;;1023273;29;20007;-82
2023/03/19 02:04:42;;;;;;;0.98;0.88;;;;;;;;;;1023305;29;20511;-82
2023/03/19 02:05:14;;;;;;;1.02;0.90;;;;;;;;;;1023367;29;20019;-82
2023/03/19 02:05:49;;;;;;;1.20;0.95;;;;;;;;;;1023170;29;20105;-81
2023/03/19 02:06:20;;;;;;;1.55;1.00;;;;;;;;;;1019330;29;20044;-82
2023/03/19 02:06:53;;;;;;;0.85;0.82;;;;;;;;;;1019156;29;20024;-81
2023/03/19 02:07:25;;;;;;;2.30;0.95;;;;;;;;;;1015303;29;20488;-82
2023/03/19 02:07:59;;;;;;;1.23;0.90;;;;;;;;;;1015334;29;20046;-82
2023/03/19 02:08:30;;;;;;;0.95;0.88;;;;;;;;;;1016605;29;20043;-82
2023/03/19 02:09:02;;;;;;;0.82;0.80;;;;;;;;;;1015806;29;20020;-82
2023/03/19 02:09:33;;;;;;;0.95;0.80;;;;;;;;;;1019402;29;20020;-82
2023/03/19 02:10:07;;;;;;;1.20;0.70;;;;;;;;;;1019039;29;20032;-82
2023/03/19 02:10:38;;;;;;;2.10;0.98;;;;;;;;;;1019722;29;20027;-82
2023/03/19 02:11:10;;;;;;;0.98;0.80;;;;;;;;;;1023321;29;20012;-82
2023/03/19 02:11:41;;;;;;;0.93;0.90;;;;;;;;;;1019332;29;20024;-82
2023/03/19 02:12:12;;;;;;;0.93;0.90;;;;;;;;;;1014526;29;20020;-82
2023/03/19 02:12:43;;;;;;;1.00;0.80;;;;;;;;;;1011812;29;20025;-82
2023/03/19 02:13:14;;;;;;;1.10;1.00;;;;;;;;;;1011573;29;20013;-81
2023/03/19 02:13:46;;;;;;;1.30;0.93;;;;;;;;;;1015687;29;20083;-83
2023/03/19 02:14:17;;;;;;;0.85;0.80;;;;;;;;;;1022516;29;20020;-82
2023/03/19 02:14:48;;;;;;;0.70;0.70;;;;;;;;;;1023574;29;20074;-83
2023/03/19 02:15:19;;;;;;;3.25;1.08;;;;;;;;;;1022920;29;20466;-82
2023/03/19 02:15:50;;;;;;;1.08;0.85;;;;;;;;;;1022892;28;20402;-82
2023/03/19 02:16:21;;;;;;;1.13;0.88;;;;;;;;;;1019167;29;20016;-81
2023/03/19 02:16:53;;;;;;;1.00;0.80;;;;;;;;;;1015579;29;20107;-82
2023/03/19 02:17:24;;;;;;;0.82;0.80;;;;;;;;;;1012728;29;20822;-81
2023/03/19 02:17:55;;;;;;;1.02;0.80;;;;;;;;;;1011421;29;20024;-81
2023/03/19 02:18:27;;;;;;;1.63;1.10;;;;;;;;;;1011664;29;20131;-81
2023/03/19 02:18:58;;;;;;;0.65;0.60;;;;;;;;;;1015543;29;20079;-81
2023/03/19 02:19:43;;;;;;;0.77;0.77;;;;;;;;;;1015006;29;20024;-81
2023/03/19 02:20:29;;;;;;;0.70;0.70;;;;;;;;;;1013656;29;20025;-83
2023/03/19 02:21:05;;;;;;;1.10;0.80;;;;;;;;;;1013721;29;20020;-81
2023/03/19 02:21:36;;;;;;;0.80;0.70;;;;;;;;;;1015422;29;20028;-81
2023/03/19 02:22:09;;;;;;;1.13;0.98;;;;;;;;;;1015474;29;20030;-81
2023/03/19 02:22:42;;;;;;;2.05;1.05;;;;;;;;;;1018112;29;20020;-82
2023/03/19 02:23:23;;;;;;;0.80;0.80;;;;;;;;;;1020175;29;20083;-81
2023/03/19 02:24:08;;;;;;;0.82;0.63;;;;;;;;;;1019150;29;20118;-81
2023/03/19 02:24:44;;;;;;;0.98;0.80;;;;;;;;;;1010723;29;20025;-81
2023/03/19 02:25:20;;;;;;;1.10;0.75;;;;;;;;;;1011451;29;20144;-81
2023/03/19 02:26:02;;;;;;;1.48;0.82;;;;;;;;;;1018791;29;20147;-81
2023/03/19 02:26:34;;;;;;;1.80;0.93;;;;;;;;;;1019569;29;20027;-81
2023/03/19 02:27:08;;;;;;;0.93;0.80;;;;;;;;;;1019317;29;20028;-81
2023/03/19 02:27:39;;;;;;;2.28;0.90;;;;;;;;;;1019183;29;20028;-81
2023/03/19 02:28:10;;;;;;;0.82;0.82;;;;;;;;;;1018691;29;20020;-83
2023/03/19 02:28:42;;;;;;;2.17;1.10;;;;;;;;;;1019917;29;20064;-82
2023/03/19 02:29:14;;;;;;;1.40;0.90;;;;;;;;;;1018328;29;20099;-83
2023/03/19 02:29:45;;;;;;;0.57;0.57;;;;;;;;;;1018316;29;20030;-83
2023/03/19 02:30:20;;;;;;;0.85;0.85;;;;;;;;;;1014945;29;20035;-82
2023/03/19 02:30:51;;;;;;;1.13;0.80;;;;;;;;;;1016257;29;20162;-82
2023/03/19 02:31:22;;;;;;;1.00;0.90;;;;;;;;;;1014936;29;20115;-83
2023/03/19 02:31:54;;;;;;;1.23;0.90;;;;;;;;;;1015958;29;20035;-82
2023/03/19 02:32:25;;;;;;;1.05;0.70;;;;;;;;;;1018782;29;20147;-82
2023/03/19 02:32:56;;;;;;;1.05;0.90;;;;;;;;;;1019262;29;20084;-82
2023/03/19 02:33:27;;;;;;;1.23;0.90;;;;;;;;;;1022868;29;20113;-82
2023/03/19 02:34:02;;;;;;;1.48;0.70;;;;;;;;;;1022983;29;20046;-82
2023/03/19 02:34:35;;;;;;;1.02;0.88;;;;;;;;;;1019602;29;20758;-82
2023/03/19 02:35:06;;;;;;;1.02;0.82;;;;;;;;;;1020917;29;20020;-82
2023/03/19 02:35:37;;;;;;;0.73;0.73;;;;;;;;;;1019173;29;20027;-82
2023/03/19 02:36:10;;;;;;;1.02;0.80;;;;;;;;;;1020665;28;20399;-82
2023/03/19 02:36:44;;;;;;;1.00;0.70;;;;;;;;;;1023056;29;20019;-82
2023/03/19 02:37:22;;;;;;;0.68;0.68;;;;;;;;;;1019708;29;20126;-82
2023/03/19 02:37:53;;;;;;;0.88;0.75;;;;;;;;;;1018994;29;20028;-82
2023/03/19 02:38:25;;;;;;;0.83;0.83;;;;;;;;;;1020530;29;20023;-82
2023/03/19 02:38:58;;;;;;;1.00;0.90;;;;;;;;;;1023406;29;20275;-82
2023/03/19 02:39:32;;;;;;;1.27;0.98;;;;;;;;;;1022099;28;20035;-82
2023/03/19 02:40:08;;;;;;;1.30;0.70;;;;;;;;;;1022694;29;20062;-82
2023/03/19 02:40:59;;;;;;;1.33;0.85;;;;;;;;;;1018687;29;20027;-82
2023/03/19 02:41:31;;;;;;;1.50;0.93;;;;;;;;;;1019041;29;20440;-82
2023/03/19 02:42:03;;;;;;;1.05;0.82;;;;;;;;;;1015261;29;20087;-82
2023/03/19 02:42:34;;;;;;;0.80;0.80;;;;;;;;;;1014381;29;20035;-82
2023/03/19 02:43:05;;;;;;;1.58;1.08;;;;;;;;;;1011140;29;20028;-82
2023/03/19 02:43:38;;;;;;;1.25;1.13;;;;;;;;;;1011555;29;20037;-82
2023/03/19 02:44:10;;;;;;;1.10;1.00;;;;;;;;;;1014991;29;20535;-83
2023/03/19 02:44:41;;;;;;;1.73;1.20;;;;;;;;;;1015694;29;20029;-82
2023/03/19 02:45:13;;;;;;;1.25;1.13;;;;;;;;;;1019904;29;20032;-82
2023/03/19 02:45:44;;;;;;;1.90;1.20;;;;;;;;;;1022782;29;20027;-82
2023/03/19 02:46:15;;;;;;;1.63;1.00;;;;;;;;;;1022642;28;20031;-82
2023/03/19 02:46:46;;;;;;;1.33;0.98;;;;;;;;;;1023169;29;20023;-81
2023/03/19 02:47:17;;;;;;;1.20;0.90;;;;;;;;;;1019274;29;20039;-81
2023/03/19 02:47:48;;;;;;;1.50;0.85;;;;;;;;;;1018835;29;20130;-81
2023/03/19 02:48:19;;;;;;;0.95;0.80;;;;;;;;;;1019251;29;20030;-82
2023/03/19 02:48:51;;;;;;;1.10;0.90;;;;;;;;;;1015397;29;20036;-83
2023/03/19 02:49:22;;;;;;;1.42;0.88;;;;;;;;;;1014622;29;20131;-82
2023/03/19 02:49:53;;;;;;;1.98;1.15;;;;;;;;;;1014600;29;20028;-81
2023/03/19 02:50:25;;;;;;;0.93;0.88;;;;;;;;;;1011592;29;20080;-82
2023/03/19 02:50:56;;;;;;;0.80;0.77;;;;;;;;;;1013830;29;20127;-82
2023/03/19 02:51:27;;;;;;;1.17;0.95;;;;;;;;;;1017295;29;20036;-82
2023/03/19 02:51:58;;;;;;;1.38;1.20;;;;;;;;;;1019107;29;20036;-82
2023/03/19 02:52:29;;;;;;;1.13;1.02;;;;;;;;;;1014954;29;20141;-82
2023/03/19 02:53:00;;;;;;;3.42;1.40;;;;;;;;;;1015068;29;20040;-82
2023/03/19 02:53:31;;;;;;;1.05;0.95;;;;;;;;;;1015779;29;20441;-81
2023/03/19 02:54:02;;;;;;;1.02;0.85;;;;;;;;;;1015320;29;20608;-81
2023/03/19 02:54:33;;;;;;;1.43;1.00;;;;;;;;;;1011295;29;20853;-81
2023/03/19 02:55:04;;;;;;;0.80;0.80;;;;;;;;;;1015044;29;20272;-80
2023/03/19 02:55:35;;;;;;;1.08;0.77;;;;;;;;;;1015042;29;20075;-81
2023/03/19 02:56:06;;;;;;;1.10;0.80;;;;;;;;;;1019001;29;20035;-81
2023/03/19 02:56:37;;;;;;;1.42;0.88;;;;;;;;;;1018931;29;20035;-82
2023/03/19 02:57:08;;;;;;;0.63;0.63;;;;;;;;;;1018812;29;20023;-81
2023/03/19 02:57:39;;;;;;;1.48;0.90;;;;;;;;;;1018791;29;21072;-81
2023/03/19 02:58:11;;;;;;;1.08;0.90;;;;;;;;;;1018371;29;20031;-80
2023/03/19 02:58:41;;;;;;;1.20;0.85;;;;;;;;;;1014870;29;20146;-81
2023/03/19 02:59:12;;;;;;;1.23;0.93;;;;;;;;;;1015214;29;20032;-81
2023/03/19 02:59:43;;;;;;;1.40;1.00;;;;;;;;;;1014848;29;20276;-82
2023/03/19 03:00:17;;;;;;;1.58;1.00;;;;;;;;;;1014924;29;20060;-81
2023/03/19 03:00:50;;;;;;;1.88;1.10;;;;;;;;;;1015080;29;20025;-81
2023/03/19 03:01:21;;;;;;;1.63;1.00;;;;;;;;;;1011078;29;20484;-81
2023/03/19 03:01:52;;;;;;;1.73;1.33;;;;;;;;;;1011788;29;20423;-82
2023/03/19 03:02:23;;;;;;;2.05;1.10;;;;;;;;;;1015267;29;20268;-82
2023/03/19 03:02:56;;;;;;;1.75;1.10;;;;;;;;;;1019066;29;20027;-82
2023/03/19 03:03:27;;;;;;;1.90;1.30;;;;;;;;;;1022700;28;20035;-83
2023/03/19 03:03:58;;;;;;;1.08;0.85;;;;;;;;;;1022726;29;20023;-82
2023/03/19 03:04:30;;;;;;;1.27;1.00;;;;;;;;;;1018863;29;20048;-82
2023/03/19 03:05:01;;;;;;;1.17;1.00;;;;;;;;;;1014678;29;20688;-83
2023/03/19 03:05:32;;;;;;;1.63;1.00;;;;;;;;;;1012751;29;20504;-82
2023/03/19 03:06:03;;;;;;;0.90;0.80;;;;;;;;;;1013709;29;20268;-83
2023/03/19 03:06:34;;;;;;;0.88;0.80;;;;;;;;;;1019022;29;20082;-83
2023/03/19 03:07:06;;;;;;;1.30;1.20;;;;;;;;;;1022718;28;20090;-83
2023/03/19 03:07:37;;;;;;;1.42;0.93;;;;;;;;;;1021727;28;20041;-83
2023/03/19 03:08:08;;;;;;;1.13;1.02;;;;;;;;;;1018551;29;20031;-83
2023/03/19 03:08:39;;;;;;;0.85;0.80;;;;;;;;;;1025879;28;20034;-82
2023/03/19 03:09:11;;;;;;;2.60;1.00;;;;;;;;;;1026332;28;20053;-83
2023/03/19 03:09:42;;;;;;;2.17;1.20;;;;;;;;;;1023020;28;20030;-83
2023/03/19 03:10:13;;;;;;;1.42;1.10;;;;;;;;;;1026541;28;20022;-83
2023/03/19 03:10:44;;;;;;;1.30;1.07;;;;;;;;;;1022380;28;21058;-81
2023/03/19 03:11:15;;;;;;;2.05;0.90;;;;;;;;;;1018621;29;20267;-82
2023/03/19 03:11:46;;;;;;;1.33;1.07;;;;;;;;;;1019215;29;20027;-81